SAS2645 ESSA-EDDH
Flight info
| Callsign | SAS2645 |
|---|---|
| Flight time | 1h 9m |
| Altitude | 38000 |
| Route | NOSLI N850 ABAMA DCT GIMRU T503 MICOS N850 BOGMU |
| Aircraft | CRJ9/M-SDFGIRWY/S |
Departure
| Time | 2026-04-22 17:48 |
|---|---|
| Airport | Stockholm-Arlanda Airport (ESSA) |
Arrival
| Time | 2026-04-22 18:58 |
|---|---|
| Airport | Hamburg Helmut Schmidt Airport (EDDH) |
| Time | Latitude | Longitude | Altitude | Speed | Heading |
|---|---|---|---|---|---|
| 2026-04-22 17:03 | 59.65239 | 17.92982 | 110 ft | 0 kts | 70° |
| 2026-04-22 17:06 | 59.65239 | 17.92981 | 110 ft | 0 kts | 70° |
| 2026-04-22 17:14 | 59.65239 | 17.92980 | 110 ft | 0 kts | 70° |
| 2026-04-22 17:23 | 59.65239 | 17.92979 | 110 ft | 0 kts | 70° |
| 2026-04-22 17:32 | 59.65239 | 17.92978 | 110 ft | 0 kts | 70° |
| 2026-04-22 17:40 | 59.65239 | 17.92977 | 110 ft | 1 kts | 70° |
| 2026-04-22 17:40 | 59.65231 | 17.92936 | 108 ft | 4 kts | 70° |
| 2026-04-22 17:41 | 59.65224 | 17.92896 | 107 ft | 4 kts | 70° |
| 2026-04-22 17:41 | 59.65216 | 17.92856 | 108 ft | 4 kts | 79° |
| 2026-04-22 17:41 | 59.65221 | 17.92809 | 108 ft | 3 kts | 109° |
| 2026-04-22 17:41 | 59.65228 | 17.92767 | 109 ft | 4 kts | 109° |
| 2026-04-22 17:42 | 59.65236 | 17.92725 | 110 ft | 0 kts | 109° |
| 2026-04-22 17:44 | 59.65236 | 17.92724 | 110 ft | 0 kts | 109° |
| 2026-04-22 17:44 | 59.65236 | 17.92725 | 110 ft | 0 kts | 109° |
| 2026-04-22 17:44 | 59.65235 | 17.92744 | 109 ft | 2 kts | 77° |
| 2026-04-22 17:44 | 59.65259 | 17.92780 | 110 ft | 8 kts | 19° |
| 2026-04-22 17:45 | 59.65324 | 17.92741 | 110 ft | 12 kts | 332° |
| 2026-04-22 17:45 | 59.65397 | 17.92668 | 110 ft | 11 kts | 331° |
| 2026-04-22 17:45 | 59.65477 | 17.92588 | 105 ft | 15 kts | 348° |
| 2026-04-22 17:45 | 59.65542 | 17.92710 | 106 ft | 14 kts | 77° |
| 2026-04-22 17:46 | 59.65568 | 17.92908 | 107 ft | 17 kts | 76° |
| 2026-04-22 17:46 | 59.65600 | 17.93165 | 108 ft | 21 kts | 75° |
| 2026-04-22 17:46 | 59.65676 | 17.93397 | 107 ft | 19 kts | 47° |
| 2026-04-22 17:46 | 59.65738 | 17.93521 | 110 ft | 11 kts | 45° |
| 2026-04-22 17:47 | 59.65791 | 17.93633 | 114 ft | 12 kts | 47° |
| 2026-04-22 17:47 | 59.65847 | 17.93696 | 116 ft | 7 kts | 48° |
| 2026-04-22 17:47 | 59.65866 | 17.93804 | 115 ft | 13 kts | 78° |
| 2026-04-22 17:47 | 59.65935 | 17.94339 | 119 ft | 77 kts | 77° |
| 2026-04-22 17:48 | 59.66051 | 17.95265 | 117 ft | 126 kts | 76° |
| 2026-04-22 17:48 | 59.66402 | 17.98070 | 418 ft | 174 kts | 74° |
| 2026-04-22 17:48 | 59.66661 | 18.00414 | 1303 ft | 173 kts | 72° |
| 2026-04-22 17:48 | 59.67084 | 18.02555 | 2136 ft | 161 kts | 39° |
| 2026-04-22 17:49 | 59.68022 | 18.03356 | 2906 ft | 148 kts | 353° |
| 2026-04-22 17:49 | 59.68940 | 18.02288 | 3266 ft | 173 kts | 311° |
| 2026-04-22 17:49 | 59.69614 | 18.00182 | 3812 ft | 187 kts | 307° |
| 2026-04-22 17:49 | 59.70203 | 17.97857 | 4554 ft | 194 kts | 295° |
| 2026-04-22 17:50 | 59.70601 | 17.95295 | 5383 ft | 196 kts | 291° |
| 2026-04-22 17:50 | 59.70648 | 17.92530 | 6054 ft | 216 kts | 259° |
| 2026-04-22 17:50 | 59.70156 | 17.89677 | 6796 ft | 221 kts | 257° |
| 2026-04-22 17:50 | 59.69528 | 17.86827 | 7381 ft | 241 kts | 242° |
| 2026-04-22 17:51 | 59.68236 | 17.84279 | 7498 ft | 283 kts | 223° |
| 2026-04-22 17:51 | 59.66525 | 17.81966 | 7762 ft | 312 kts | 215° |
| 2026-04-22 17:51 | 59.64564 | 17.79791 | 8154 ft | 334 kts | 212° |
| 2026-04-22 17:51 | 59.62423 | 17.77692 | 8576 ft | 353 kts | 209° |
| 2026-04-22 17:52 | 59.60141 | 17.75599 | 9053 ft | 369 kts | 208° |
| 2026-04-22 17:52 | 59.57791 | 17.73482 | 9562 ft | 382 kts | 209° |
| 2026-04-22 17:52 | 59.55365 | 17.71216 | 10213 ft | 389 kts | 210° |
| 2026-04-22 17:52 | 59.52926 | 17.68868 | 11003 ft | 391 kts | 210° |
| 2026-04-22 17:53 | 59.50472 | 17.66484 | 11655 ft | 398 kts | 210° |
| 2026-04-22 17:53 | 59.47960 | 17.64083 | 12320 ft | 404 kts | 210° |
| 2026-04-22 17:53 | 59.45402 | 17.61648 | 12973 ft | 411 kts | 209° |
| 2026-04-22 17:53 | 59.42806 | 17.59177 | 13637 ft | 418 kts | 209° |
| 2026-04-22 17:54 | 59.40167 | 17.56680 | 14253 ft | 424 kts | 209° |
| 2026-04-22 17:54 | 59.37497 | 17.54160 | 14888 ft | 428 kts | 208° |
| 2026-04-22 17:54 | 59.34797 | 17.51607 | 15526 ft | 432 kts | 208° |
| 2026-04-22 17:54 | 59.32079 | 17.49042 | 16143 ft | 436 kts | 208° |
| 2026-04-22 17:55 | 59.30263 | 17.47340 | 16553 ft | 438 kts | 208° |
| 2026-04-22 17:55 | 59.26581 | 17.43879 | 17546 ft | 437 kts | 207° |
| 2026-04-22 17:55 | 59.23824 | 17.41307 | 18159 ft | 440 kts | 207° |
| 2026-04-22 17:55 | 59.21046 | 17.38711 | 18678 ft | 444 kts | 207° |
| 2026-04-22 17:56 | 59.18251 | 17.36094 | 19164 ft | 447 kts | 207° |
| 2026-04-22 17:56 | 59.15432 | 17.33462 | 19641 ft | 450 kts | 207° |
| 2026-04-22 17:56 | 59.12629 | 17.30854 | 20112 ft | 453 kts | 207° |
| 2026-04-22 17:56 | 59.09772 | 17.28200 | 20570 ft | 456 kts | 207° |
| 2026-04-22 17:57 | 59.06914 | 17.25456 | 20992 ft | 459 kts | 213° |
| 2026-04-22 17:57 | 59.04360 | 17.21775 | 21427 ft | 458 kts | 224° |
| 2026-04-22 17:57 | 59.02005 | 17.17594 | 21896 ft | 458 kts | 225° |
| 2026-04-22 17:57 | 58.99642 | 17.13401 | 22341 ft | 462 kts | 224° |
| 2026-04-22 17:58 | 58.97186 | 17.09344 | 22738 ft | 466 kts | 221° |
| 2026-04-22 17:58 | 58.94670 | 17.05351 | 23127 ft | 469 kts | 221° |
| 2026-04-22 17:58 | 58.92132 | 17.01358 | 23507 ft | 472 kts | 221° |
| 2026-04-22 17:58 | 58.89597 | 16.97413 | 23833 ft | 475 kts | 221° |
| 2026-04-22 17:59 | 58.87035 | 16.93354 | 24141 ft | 477 kts | 222° |
| 2026-04-22 17:59 | 58.84462 | 16.89251 | 24440 ft | 480 kts | 221° |
| 2026-04-22 17:59 | 58.81879 | 16.85138 | 24738 ft | 482 kts | 221° |
| 2026-04-22 17:59 | 58.79281 | 16.81011 | 25026 ft | 485 kts | 221° |
| 2026-04-22 18:00 | 58.77558 | 16.78285 | 25284 ft | 485 kts | 222° |
| 2026-04-22 18:00 | 58.74053 | 16.72735 | 25653 ft | 488 kts | 221° |
| 2026-04-22 18:00 | 58.71422 | 16.68586 | 25918 ft | 491 kts | 222° |
| 2026-04-22 18:00 | 58.68774 | 16.64422 | 26177 ft | 493 kts | 222° |
| 2026-04-22 18:01 | 58.66112 | 16.60241 | 26427 ft | 495 kts | 221° |
| 2026-04-22 18:01 | 58.63435 | 16.56038 | 26668 ft | 498 kts | 221° |
| 2026-04-22 18:01 | 58.60742 | 16.51827 | 26892 ft | 500 kts | 221° |
| 2026-04-22 18:01 | 58.58042 | 16.47607 | 27104 ft | 502 kts | 221° |
| 2026-04-22 18:02 | 58.55330 | 16.43382 | 27331 ft | 504 kts | 221° |
| 2026-04-22 18:02 | 58.52599 | 16.39126 | 27514 ft | 507 kts | 221° |
| 2026-04-22 18:02 | 58.49852 | 16.34880 | 27730 ft | 509 kts | 220° |
| 2026-04-22 18:02 | 58.47096 | 16.30618 | 27926 ft | 511 kts | 220° |
| 2026-04-22 18:03 | 58.44327 | 16.26339 | 28149 ft | 512 kts | 220° |
| 2026-04-22 18:03 | 58.41544 | 16.22049 | 28339 ft | 514 kts | 220° |
| 2026-04-22 18:03 | 58.38791 | 16.17815 | 28536 ft | 516 kts | 220° |
| 2026-04-22 18:03 | 58.35987 | 16.13512 | 28719 ft | 518 kts | 220° |
| 2026-04-22 18:04 | 58.33179 | 16.09210 | 28942 ft | 518 kts | 220° |
| 2026-04-22 18:04 | 58.30381 | 16.04930 | 29331 ft | 515 kts | 220° |
| 2026-04-22 18:04 | 58.27598 | 16.00680 | 29756 ft | 512 kts | 219° |
| 2026-04-22 18:04 | 58.24817 | 15.96453 | 30035 ft | 512 kts | 220° |
| 2026-04-22 18:05 | 58.22035 | 15.92231 | 30256 ft | 512 kts | 219° |
| 2026-04-22 18:05 | 58.19250 | 15.88008 | 30489 ft | 511 kts | 219° |
| 2026-04-22 18:05 | 58.16473 | 15.83800 | 30689 ft | 511 kts | 219° |
| 2026-04-22 18:05 | 58.13689 | 15.79599 | 30902 ft | 511 kts | 219° |
| 2026-04-22 18:06 | 58.10903 | 15.75404 | 31122 ft | 511 kts | 219° |
| 2026-04-22 18:06 | 58.08122 | 15.71217 | 31313 ft | 511 kts | 219° |
| 2026-04-22 18:06 | 58.05375 | 15.67095 | 31546 ft | 509 kts | 219° |
| 2026-04-22 18:06 | 58.02609 | 15.62953 | 31838 ft | 507 kts | 219° |
| 2026-04-22 18:07 | 58.00742 | 15.60168 | 31963 ft | 507 kts | 219° |
| 2026-04-22 18:07 | 57.97076 | 15.54725 | 32241 ft | 506 kts | 218° |
| 2026-04-22 18:07 | 57.94265 | 15.50738 | 32485 ft | 504 kts | 216° |
| 2026-04-22 18:07 | 57.91443 | 15.46877 | 32868 ft | 500 kts | 216° |
| 2026-04-22 18:08 | 57.88639 | 15.43021 | 33053 ft | 500 kts | 216° |
| 2026-04-22 18:08 | 57.85840 | 15.39153 | 33239 ft | 500 kts | 216° |
| 2026-04-22 18:08 | 57.83046 | 15.35295 | 33412 ft | 498 kts | 216° |
| 2026-04-22 18:08 | 57.80246 | 15.31447 | 33640 ft | 497 kts | 216° |
| 2026-04-22 18:09 | 57.77454 | 15.27624 | 33807 ft | 497 kts | 216° |
| 2026-04-22 18:09 | 57.74661 | 15.23804 | 33995 ft | 497 kts | 216° |
| 2026-04-22 18:09 | 57.71861 | 15.19977 | 34070 ft | 499 kts | 215° |
| 2026-04-22 18:10 | 57.66219 | 15.12299 | 34124 ft | 504 kts | 215° |
| 2026-04-22 18:10 | 57.60508 | 15.04560 | 34136 ft | 510 kts | 215° |
| 2026-04-22 18:11 | 57.54770 | 14.96816 | 34140 ft | 515 kts | 215° |
| 2026-04-22 18:11 | 57.48939 | 14.88991 | 34139 ft | 518 kts | 215° |
| 2026-04-22 18:12 | 57.43072 | 14.81127 | 34141 ft | 521 kts | 215° |
| 2026-04-22 18:12 | 57.38129 | 14.74538 | 34140 ft | 523 kts | 214° |
| 2026-04-22 18:13 | 57.31244 | 14.65378 | 34151 ft | 525 kts | 214° |
| 2026-04-22 18:13 | 57.25280 | 14.57495 | 34141 ft | 527 kts | 214° |
| 2026-04-22 18:14 | 57.20317 | 14.50949 | 34135 ft | 527 kts | 214° |
| 2026-04-22 18:14 | 57.13318 | 14.41755 | 34138 ft | 528 kts | 214° |
| 2026-04-22 18:15 | 57.07356 | 14.33967 | 34143 ft | 529 kts | 214° |
| 2026-04-22 18:15 | 57.01334 | 14.26134 | 34136 ft | 530 kts | 214° |
| 2026-04-22 18:16 | 56.96324 | 14.19640 | 34158 ft | 530 kts | 213° |
| 2026-04-22 18:16 | 56.90297 | 14.11846 | 34160 ft | 530 kts | 213° |
| 2026-04-22 18:17 | 56.84257 | 14.04072 | 34168 ft | 531 kts | 213° |
| 2026-04-22 18:17 | 56.78211 | 13.96333 | 34168 ft | 531 kts | 213° |
| 2026-04-22 18:18 | 56.72199 | 13.88656 | 34169 ft | 531 kts | 213° |
| 2026-04-22 18:18 | 56.66232 | 13.81066 | 34171 ft | 508 kts | 213° |
| 2026-04-22 18:19 | 56.60516 | 13.73821 | 34179 ft | 499 kts | 212° |
| 2026-04-22 18:19 | 56.54817 | 13.66642 | 34181 ft | 498 kts | 212° |
| 2026-04-22 18:20 | 56.49130 | 13.59489 | 34187 ft | 497 kts | 212° |
| 2026-04-22 18:20 | 56.43449 | 13.52369 | 34191 ft | 496 kts | 212° |
| 2026-04-22 18:21 | 56.37806 | 13.45329 | 34204 ft | 496 kts | 212° |
| 2026-04-22 18:21 | 56.32129 | 13.38276 | 34215 ft | 495 kts | 211° |
| 2026-04-22 18:22 | 56.26455 | 13.31246 | 34210 ft | 495 kts | 211° |
| 2026-04-22 18:22 | 56.20775 | 13.24231 | 34201 ft | 494 kts | 211° |
| 2026-04-22 18:23 | 56.15106 | 13.17263 | 34207 ft | 493 kts | 211° |
| 2026-04-22 18:23 | 56.09443 | 13.10327 | 34223 ft | 492 kts | 210° |
| 2026-04-22 18:24 | 56.00956 | 12.99974 | 34225 ft | 491 kts | 210° |
| 2026-04-22 18:25 | 55.92482 | 12.89688 | 34226 ft | 491 kts | 210° |
| 2026-04-22 18:25 | 55.86824 | 12.82861 | 34236 ft | 490 kts | 210° |
| 2026-04-22 18:26 | 55.78387 | 12.72717 | 34233 ft | 489 kts | 210° |
| 2026-04-22 18:26 | 55.72738 | 12.65954 | 34235 ft | 489 kts | 210° |
| 2026-04-22 18:27 | 55.67076 | 12.59199 | 34238 ft | 491 kts | 209° |
| 2026-04-22 18:27 | 55.61379 | 12.52434 | 34245 ft | 494 kts | 209° |
| 2026-04-22 18:28 | 55.55652 | 12.45647 | 34240 ft | 495 kts | 208° |
| 2026-04-22 18:28 | 55.49952 | 12.38918 | 34236 ft | 496 kts | 208° |
| 2026-04-22 18:29 | 55.44206 | 12.32158 | 34239 ft | 496 kts | 208° |
| 2026-04-22 18:29 | 55.38454 | 12.25416 | 34232 ft | 496 kts | 208° |
| 2026-04-22 18:30 | 55.29822 | 12.15349 | 34243 ft | 494 kts | 208° |
| 2026-04-22 18:31 | 55.24093 | 12.08693 | 34242 ft | 493 kts | 208° |
| 2026-04-22 18:31 | 55.18373 | 12.02070 | 34271 ft | 492 kts | 208° |
| 2026-04-22 18:32 | 55.12652 | 11.95485 | 34251 ft | 491 kts | 207° |
| 2026-04-22 18:32 | 55.06944 | 11.88919 | 34262 ft | 491 kts | 207° |
| 2026-04-22 18:33 | 55.01275 | 11.82426 | 34253 ft | 491 kts | 207° |
| 2026-04-22 18:33 | 54.95555 | 11.75894 | 34255 ft | 490 kts | 207° |
| 2026-04-22 18:33 | 54.92691 | 11.72637 | 34042 ft | 495 kts | 207° |
| 2026-04-22 18:34 | 54.89771 | 11.69334 | 33584 ft | 505 kts | 207° |
| 2026-04-22 18:34 | 54.86802 | 11.65966 | 33074 ft | 515 kts | 207° |
| 2026-04-22 18:34 | 54.83810 | 11.62556 | 32539 ft | 513 kts | 208° |
| 2026-04-22 18:34 | 54.80836 | 11.59189 | 32029 ft | 508 kts | 207° |
| 2026-04-22 18:35 | 54.77886 | 11.55856 | 31485 ft | 504 kts | 207° |
| 2026-04-22 18:35 | 54.74948 | 11.52546 | 30968 ft | 502 kts | 208° |
| 2026-04-22 18:35 | 54.72032 | 11.49259 | 30455 ft | 499 kts | 208° |
| 2026-04-22 18:35 | 54.69124 | 11.45993 | 29921 ft | 497 kts | 207° |
| 2026-04-22 18:36 | 54.66217 | 11.42748 | 29321 ft | 495 kts | 208° |
| 2026-04-22 18:36 | 54.63320 | 11.39509 | 28753 ft | 494 kts | 208° |
| 2026-04-22 18:36 | 54.60446 | 11.36285 | 28170 ft | 492 kts | 208° |
| 2026-04-22 18:36 | 54.57578 | 11.33076 | 27620 ft | 490 kts | 208° |
| 2026-04-22 18:37 | 54.54725 | 11.29894 | 27079 ft | 488 kts | 209° |
| 2026-04-22 18:37 | 54.51955 | 11.26631 | 26559 ft | 488 kts | 212° |
| 2026-04-22 18:37 | 54.50097 | 11.24324 | 26207 ft | 487 kts | 213° |
| 2026-04-22 18:37 | 54.46493 | 11.19832 | 25546 ft | 477 kts | 213° |
| 2026-04-22 18:38 | 54.43813 | 11.16536 | 25041 ft | 469 kts | 213° |
| 2026-04-22 18:38 | 54.41165 | 11.13335 | 24545 ft | 463 kts | 213° |
| 2026-04-22 18:38 | 54.38539 | 11.10183 | 24049 ft | 457 kts | 213° |
| 2026-04-22 18:39 | 54.33394 | 11.03978 | 22916 ft | 447 kts | 214° |
| 2026-04-22 18:39 | 54.30936 | 11.00755 | 22315 ft | 445 kts | 222° |
| 2026-04-22 18:39 | 54.28813 | 10.96940 | 21696 ft | 440 kts | 229° |
| 2026-04-22 18:39 | 54.26920 | 10.92858 | 21052 ft | 435 kts | 233° |
| 2026-04-22 18:40 | 54.25137 | 10.88702 | 20433 ft | 431 kts | 233° |
| 2026-04-22 18:40 | 54.23398 | 10.84635 | 19823 ft | 427 kts | 233° |
| 2026-04-22 18:40 | 54.21598 | 10.80550 | 19190 ft | 422 kts | 232° |
| 2026-04-22 18:40 | 54.19810 | 10.76597 | 18562 ft | 418 kts | 232° |
| 2026-04-22 18:41 | 54.18066 | 10.72735 | 17860 ft | 414 kts | 232° |
| 2026-04-22 18:41 | 54.16297 | 10.68879 | 17178 ft | 411 kts | 232° |
| 2026-04-22 18:41 | 54.14552 | 10.65046 | 16493 ft | 408 kts | 232° |
| 2026-04-22 18:41 | 54.12819 | 10.61231 | 15833 ft | 405 kts | 232° |
| 2026-04-22 18:42 | 54.11094 | 10.57454 | 15178 ft | 402 kts | 232° |
| 2026-04-22 18:42 | 54.09386 | 10.53708 | 14554 ft | 398 kts | 232° |
| 2026-04-22 18:42 | 54.07696 | 10.49994 | 13936 ft | 395 kts | 233° |
| 2026-04-22 18:42 | 54.06008 | 10.46338 | 13263 ft | 391 kts | 232° |
| 2026-04-22 18:43 | 54.04337 | 10.42713 | 12630 ft | 387 kts | 233° |
| 2026-04-22 18:43 | 54.02692 | 10.39135 | 12040 ft | 381 kts | 233° |
| 2026-04-22 18:43 | 54.01084 | 10.35632 | 11631 ft | 368 kts | 233° |
| 2026-04-22 18:43 | 53.99541 | 10.32280 | 11448 ft | 349 kts | 233° |
| 2026-04-22 18:44 | 53.98242 | 10.28984 | 11378 ft | 324 kts | 249° |
| 2026-04-22 18:44 | 53.97695 | 10.25386 | 11238 ft | 308 kts | 262° |
| 2026-04-22 18:44 | 53.97315 | 10.21890 | 11090 ft | 294 kts | 263° |
| 2026-04-22 18:44 | 53.96975 | 10.18535 | 10940 ft | 282 kts | 263° |
| 2026-04-22 18:45 | 53.96659 | 10.15296 | 10714 ft | 275 kts | 264° |
| 2026-04-22 18:45 | 53.96354 | 10.12116 | 10460 ft | 270 kts | 264° |
| 2026-04-22 18:45 | 53.96054 | 10.08990 | 10202 ft | 266 kts | 264° |
| 2026-04-22 18:45 | 53.95758 | 10.05915 | 9822 ft | 268 kts | 264° |
| 2026-04-22 18:46 | 53.95456 | 10.02787 | 9420 ft | 268 kts | 264° |
| 2026-04-22 18:46 | 53.95158 | 9.99700 | 9026 ft | 263 kts | 264° |
| 2026-04-22 18:46 | 53.94844 | 9.96663 | 8617 ft | 260 kts | 259° |
| 2026-04-22 18:46 | 53.93951 | 9.94036 | 8230 ft | 262 kts | 223° |
| 2026-04-22 18:47 | 53.92328 | 9.92721 | 7894 ft | 261 kts | 187° |
| 2026-04-22 18:47 | 53.90553 | 9.93159 | 7545 ft | 260 kts | 152° |
| 2026-04-22 18:47 | 53.88984 | 9.94671 | 7220 ft | 260 kts | 146° |
| 2026-04-22 18:47 | 53.87450 | 9.96300 | 6880 ft | 261 kts | 145° |
| 2026-04-22 18:48 | 53.85932 | 9.97981 | 6536 ft | 260 kts | 144° |
| 2026-04-22 18:48 | 53.84434 | 9.99682 | 6208 ft | 258 kts | 144° |
| 2026-04-22 18:48 | 53.82962 | 10.01376 | 5896 ft | 253 kts | 144° |
| 2026-04-22 18:48 | 53.81531 | 10.03067 | 5599 ft | 248 kts | 139° |
| 2026-04-22 18:49 | 53.80592 | 10.05381 | 5352 ft | 235 kts | 99° |
| 2026-04-22 18:49 | 53.80707 | 10.08030 | 5181 ft | 231 kts | 62° |
| 2026-04-22 18:49 | 53.81469 | 10.10457 | 5068 ft | 236 kts | 57° |
| 2026-04-22 18:49 | 53.82313 | 10.12870 | 4916 ft | 239 kts | 55° |
| 2026-04-22 18:50 | 53.83181 | 10.15251 | 4745 ft | 236 kts | 54° |
| 2026-04-22 18:50 | 53.84054 | 10.17581 | 4571 ft | 233 kts | 54° |
| 2026-04-22 18:50 | 53.84927 | 10.19884 | 4385 ft | 231 kts | 53° |
| 2026-04-22 18:50 | 53.85794 | 10.22168 | 4200 ft | 229 kts | 53° |
| 2026-04-22 18:51 | 53.86652 | 10.24432 | 4073 ft | 226 kts | 53° |
| 2026-04-22 18:51 | 53.87475 | 10.26669 | 4017 ft | 222 kts | 60° |
| 2026-04-22 18:51 | 53.87681 | 10.29237 | 3967 ft | 227 kts | 102° |
| 2026-04-22 18:51 | 53.86849 | 10.31460 | 3956 ft | 228 kts | 143° |
| 2026-04-22 18:52 | 53.85390 | 10.32306 | 3973 ft | 225 kts | 184° |
| 2026-04-22 18:52 | 53.83855 | 10.31687 | 4020 ft | 233 kts | 201° |
| 2026-04-22 18:52 | 53.82282 | 10.30774 | 4060 ft | 245 kts | 202° |
| 2026-04-22 18:52 | 53.80676 | 10.29772 | 4058 ft | 247 kts | 203° |
| 2026-04-22 18:53 | 53.79079 | 10.28737 | 4038 ft | 243 kts | 204° |
| 2026-04-22 18:53 | 53.77572 | 10.27584 | 4089 ft | 235 kts | 217° |
| 2026-04-22 18:53 | 53.76381 | 10.25681 | 4124 ft | 232 kts | 229° |
| 2026-04-22 18:53 | 53.75271 | 10.23680 | 3661 ft | 236 kts | 233° |
| 2026-04-22 18:54 | 53.74234 | 10.21593 | 3287 ft | 225 kts | 234° |
| 2026-04-22 18:54 | 53.73270 | 10.19620 | 3048 ft | 210 kts | 234° |
| 2026-04-22 18:54 | 53.72365 | 10.17774 | 2826 ft | 199 kts | 234° |
| 2026-04-22 18:54 | 53.71505 | 10.16026 | 2538 ft | 186 kts | 234° |
| 2026-04-22 18:55 | 53.70703 | 10.14392 | 2289 ft | 177 kts | 234° |
| 2026-04-22 18:55 | 53.69930 | 10.12811 | 2070 ft | 173 kts | 235° |
| 2026-04-22 18:55 | 53.69164 | 10.11263 | 1831 ft | 172 kts | 235° |
| 2026-04-22 18:55 | 53.68410 | 10.09725 | 1589 ft | 171 kts | 236° |
| 2026-04-22 18:56 | 53.67687 | 10.08259 | 1384 ft | 152 kts | 236° |
| 2026-04-22 18:56 | 53.67038 | 10.06942 | 1151 ft | 145 kts | 236° |
| 2026-04-22 18:56 | 53.66390 | 10.05629 | 959 ft | 145 kts | 236° |
| 2026-04-22 18:56 | 53.65756 | 10.04321 | 760 ft | 142 kts | 236° |
| 2026-04-22 18:57 | 53.65140 | 10.03064 | 561 ft | 138 kts | 234° |
| 2026-04-22 18:57 | 53.64529 | 10.01813 | 367 ft | 140 kts | 233° |
| 2026-04-22 18:57 | 53.63880 | 10.00524 | 198 ft | 143 kts | 232° |
| 2026-04-22 18:57 | 53.63277 | 9.99330 | 51 ft | 119 kts | 235° |
| 2026-04-22 18:58 | 53.62856 | 9.98456 | 48 ft | 69 kts | 230° |
| 2026-04-22 18:58 | 53.62700 | 9.98140 | 48 ft | 45 kts | 230° |
| 2026-04-22 18:58 | 53.62552 | 9.97843 | 46 ft | 27 kts | 226° |
| 2026-04-22 18:58 | 53.62435 | 9.97852 | 47 ft | 16 kts | 120° |
| 2026-04-22 18:59 | 53.62441 | 9.98016 | 47 ft | 12 kts | 66° |
| 2026-04-22 18:59 | 53.62488 | 9.98138 | 48 ft | 12 kts | 53° |
| 2026-04-22 18:59 | 53.62543 | 9.98254 | 49 ft | 13 kts | 50° |
| 2026-04-22 18:59 | 53.62627 | 9.98425 | 49 ft | 16 kts | 51° |
| 2026-04-22 19:00 | 53.62676 | 9.98524 | 47 ft | 17 kts | 50° |
| 2026-04-22 19:00 | 53.62757 | 9.98688 | 49 ft | 20 kts | 51° |
| 2026-04-22 19:00 | 53.62850 | 9.98876 | 48 ft | 22 kts | 51° |
| 2026-04-22 19:00 | 53.62945 | 9.99070 | 48 ft | 19 kts | 51° |
| 2026-04-22 19:01 | 53.63031 | 9.99244 | 48 ft | 19 kts | 52° |
| 2026-04-22 19:01 | 53.63109 | 9.99422 | 48 ft | 19 kts | 54° |
| 2026-04-22 19:01 | 53.63182 | 9.99589 | 47 ft | 15 kts | 49° |
| 2026-04-22 19:01 | 53.63226 | 9.99726 | 48 ft | 13 kts | 102° |
| 2026-04-22 19:02 | 53.63160 | 9.99817 | 48 ft | 13 kts | 152° |
| 2026-04-22 19:02 | 53.63077 | 9.99889 | 47 ft | 14 kts | 153° |
| 2026-04-22 19:02 | 53.62988 | 9.99966 | 47 ft | 15 kts | 153° |
| 2026-04-22 19:02 | 53.62891 | 10.00041 | 49 ft | 16 kts | 162° |
| 2026-04-22 19:03 | 53.62795 | 10.00115 | 49 ft | 16 kts | 154° |
| 2026-04-22 19:03 | 53.62716 | 10.00183 | 49 ft | 5 kts | 143° |
| 2026-04-22 19:03 | 53.62711 | 10.00211 | 49 ft | 4 kts | 78° |
| 2026-04-22 19:03 | 53.62722 | 10.00255 | 49 ft | 3 kts | 63° |
| 2026-04-22 19:04 | 53.62731 | 10.00285 | 47 ft | 1 kts | 63° |
| 2026-04-22 19:04 | 53.62733 | 10.00291 | 47 ft | 0 kts | 63° |
| 2026-04-22 19:07 | 53.62733 | 10.00290 | 47 ft | 0 kts | 63° |